CYYT

St. John's International Airport

St. John's, Canada
TAF CYYT 161738Z 1618/1718 22010G20KT P6SM -SHRA SCT008 OVC100 TEMPO 1618/1703 4SM -SHRA BR BKN008 OVC100 FM170300 18012G22KT 6SM -SHRA BR OVC005 TEMPO 1703/1712 2SM SHRA BR OVC003 FM171400 19018G28KT P6SM BKN010 RMK NXT FCST BY 170000Z
Issued Valid From Valid To
Jul-16 @ 17:38 UTC
(2 hours ago)
Jul-16 @ 18:00 UTC
(2 hours ago)
Jul-17 @ 18:00 UTC
(in 22 hours)
Jul-16 @ 18:00 to Jul-17 @ 03:00
TAF CYYT 161738Z 1618/1718 22010G20KT P6SM -SHRA SCT008 OVC100
Wind Visibility Clouds Conditions
220° at 10 knots
 Gusting to 20 knots
Greater than 6 miles
  • Scattered at 800' AGL
  • Overcast at 10,000' AGL
  • Light Rain
Temporary Jul-16 @ 18:00 to Jul-17 @ 03:00
TEMPO 1618/1703 4SM -SHRA BR BKN008 OVC100
Visibility Clouds Conditions
4 miles
  • Broken at 800' AGL
  • Overcast at 10,000' AGL
  • Light Rain
  • Mist
Temporary Jul-17 @ 03:00 to Jul-17 @ 12:00
TEMPO 1703/1712 2SM SHRA BR OVC003
Visibility Clouds Conditions
2 miles
  • Overcast at 300' AGL
  • Rain
  • Mist
From Jul-17 @ 03:00 to Jul-17 @ 14:00
FM170300 18012G22KT 6SM -SHRA BR OVC005
Wind Visibility Clouds Conditions
180° at 12 knots
 Gusting to 22 knots
6 miles
  • Overcast at 500' AGL
  • Light Rain
  • Mist
From Jul-17 @ 14:00 to Jul-17 @ 18:00
FM171400 19018G28KT P6SM BKN010 RMK NXT FCST BY 170000Z
Wind Visibility Clouds
190° at 18 knots
 Gusting to 28 knots
Greater than 6 miles
  • Broken at 1,000' AGL
TAF CYYT 161738Z 1618/1718 22010G20KT P6SM -SHRA SCT008 OVC100 TEMPO 1618/1703 4SM -SHRA BR BKN008 OVC100 FM170300 18012G22KT 6SM -SHRA BR OVC005 TEMPO 1703/1712 2SM SHRA BR OVC003 FM171400 19018G28KT P6SM BKN010 RMK NXT FCST BY 170000Z
Issued Jul-16 @ 17:38 UTC
(2 hours ago)
Valid From Jul-16 @ 18:00 UTC
(2 hours ago)
Valid To Jul-17 @ 18:00 UTC
(in 22 hours)
Jul-16 @ 18:00 - Jul-17 @ 03:00
Wind Visibility
220° at 10 knots
 Gusting to 20 knots
Greater than 6 miles
Clouds
  • Scattered at 800' AGL
  • Overcast at 10,000' AGL
Conditions
  • Light Rain
Temporary Jul-16 @ 18:00 - Jul-17 @ 03:00
Clouds
  • Broken at 800' AGL
  • Overcast at 10,000' AGL
Conditions
  • Light Rain
  • Mist
Temporary Jul-17 @ 03:00 - Jul-17 @ 12:00
Clouds
  • Overcast at 300' AGL
Conditions
  • Rain
  • Mist
From Jul-17 @ 03:00 - Jul-17 @ 14:00
Wind Visibility
180° at 12 knots
 Gusting to 22 knots
6 miles
Clouds
  • Overcast at 500' AGL
Conditions
  • Light Rain
  • Mist
From Jul-17 @ 14:00 - Jul-17 @ 18:00
Wind Visibility
190° at 18 knots
 Gusting to 28 knots
Greater than 6 miles
Clouds
  • Broken at 1,000' AGL